Terminal Aerodrome Forecast
Issued by NWS

Home | Current Version | Previous Version | Text Only | Print | Product List | Glossary On
Versions: 1 2 3 4 5 6 7 8 9 10 11 12 13 14 15
579
FTUS46 KHNX 221737
TAFVIS
TAF
KVIS 221737Z 2218/2318 13015G28KT 5SM -RA OVC040
     FM230300 30013G20KT P6SM -SHRA SCT020 BKN045
     FM230900 31010KT P6SM SCT050=

USA.gov is the U.S. government's official web portal to all federal, state and local government web resources and services.